createdAt,value
2023-03-22T00:00:17.663Z,100105.66
2023-03-22T00:02:44.725Z,100110.38
2023-03-22T00:05:11.532Z,100104.00
2023-03-22T00:07:38.560Z,100097.94
2023-03-22T00:10:06.340Z,100103.38
2023-03-22T00:12:33.162Z,100101.94
2023-03-22T00:15:00.387Z,100105.47
2023-03-22T00:17:27.339Z,100103.38
2023-03-22T00:19:58.547Z,100106.25
2023-03-22T00:22:25.839Z,100092.25
2023-03-22T00:24:52.628Z,100090.19
2023-03-22T00:27:19.570Z,100091.38
2023-03-22T00:29:46.466Z,100091.00
2023-03-22T00:32:13.348Z,100082.13
2023-03-22T00:34:40.413Z,100085.47
2023-03-22T00:37:08.213Z,100077.59
2023-03-22T00:39:35.186Z,100085.88
2023-03-22T00:42:05.057Z,100081.13
2023-03-22T00:44:32.525Z,100077.00
2023-03-22T00:46:59.352Z,100067.91
2023-03-22T00:49:27.361Z,100063.59
2023-03-22T00:51:54.962Z,100067.31
2023-03-22T00:54:21.874Z,100065.03
2023-03-22T00:56:50.032Z,100061.09
2023-03-22T00:59:17.319Z,100071.03
2023-03-22T01:01:44.348Z,100065.84
2023-03-22T01:04:15.559Z,100063.16
2023-03-22T01:06:42.541Z,100057.59
2023-03-22T01:09:15.401Z,100055.94
2023-03-22T01:11:43.638Z,100062.94
2023-03-22T01:14:14.078Z,100058.81
2023-03-22T01:16:41.112Z,100064.78
2023-03-22T01:19:08.690Z,100068.28
2023-03-22T01:21:35.704Z,100068.31
2023-03-22T01:24:02.941Z,100071.38
2023-03-22T01:26:29.847Z,100074.66
2023-03-22T01:28:57.609Z,100063.53
2023-03-22T01:31:24.965Z,100065.78
2023-03-22T01:33:51.786Z,100060.66
2023-03-22T01:36:20.589Z,100057.53
2023-03-22T01:38:47.393Z,100060.00
2023-03-22T01:41:17.215Z,100064.97
2023-03-22T01:43:44.746Z,100068.91
2023-03-22T01:46:12.219Z,100059.19
2023-03-22T01:48:46.077Z,100062.09
2023-03-22T01:51:24.308Z,100060.22
2023-03-22T01:54:18.667Z,100057.34
2023-03-22T01:56:47.310Z,100070.09
2023-03-22T01:59:22.954Z,100056.25
2023-03-22T02:02:08.140Z,100059.88
2023-03-22T02:04:39.383Z,100059.59
2023-03-22T02:07:15.387Z,100065.69
2023-03-22T02:09:44.111Z,100061.13
2023-03-22T02:12:50.823Z,100068.13
2023-03-22T02:15:43.629Z,100074.59
2023-03-22T02:19:00.758Z,100077.00
2023-03-22T02:22:03.229Z,100073.44
2023-03-22T02:24:32.973Z,100064.44
2023-03-22T02:27:18.664Z,100074.25
2023-03-22T02:30:09.512Z,100071.41
2023-03-22T02:32:36.739Z,100070.13
2023-03-22T02:35:39.090Z,100074.75
2023-03-22T02:38:17.684Z,100066.63
2023-03-22T02:40:44.521Z,100071.09
2023-03-22T02:43:16.985Z,100072.47
2023-03-22T02:46:01.420Z,100075.53
2023-03-22T02:48:35.119Z,100078.16
2023-03-22T02:51:18.197Z,100077.91
2023-03-22T02:53:54.034Z,100070.88
2023-03-22T02:56:36.191Z,100076.69
2023-03-22T02:59:06.333Z,100075.41
2023-03-22T03:01:51.468Z,100078.09
2023-03-22T03:04:24.751Z,100080.63
2023-03-22T03:06:54.356Z,100076.88
2023-03-22T03:09:21.877Z,100083.81
2023-03-22T03:11:52.028Z,100079.28
2023-03-22T03:14:27.015Z,100089.00
2023-03-22T03:17:06.887Z,100090.38
2023-03-22T03:19:46.006Z,100090.56
2023-03-22T03:22:47.466Z,100092.03
2023-03-22T03:25:27.289Z,100092.81
2023-03-22T03:28:11.561Z,100095.63
2023-03-22T03:30:48.217Z,100095.22
2023-03-22T03:33:18.931Z,100096.50
2023-03-22T03:36:01.214Z,100097.91
2023-03-22T03:38:32.003Z,100104.19
2023-03-22T03:41:10.028Z,100103.38
2023-03-22T03:43:37.645Z,100108.47
2023-03-22T03:46:05.422Z,100109.72
2023-03-22T03:48:36.053Z,100109.09
2023-03-22T03:51:03.541Z,100116.28
2023-03-22T03:53:31.313Z,100112.78
2023-03-22T03:55:58.374Z,100115.50
2023-03-22T03:58:30.549Z,100118.94
2023-03-22T04:00:57.454Z,100120.66
2023-03-22T04:03:50.899Z,100123.91
2023-03-22T04:06:40.514Z,100121.16
2023-03-22T04:09:14.709Z,100117.91
2023-03-22T04:11:45.396Z,100130.19
2023-03-22T04:14:13.975Z,100134.13
2023-03-22T04:16:40.922Z,100131.78
2023-03-22T04:19:11.483Z,100130.66
2023-03-22T04:21:39.257Z,100130.47
2023-03-22T04:24:07.559Z,100138.25
2023-03-22T04:26:37.655Z,100131.66
2023-03-22T04:29:32.256Z,100134.78
2023-03-22T04:32:12.524Z,100131.94
2023-03-22T04:34:43.180Z,100132.56
2023-03-22T04:37:13.934Z,100127.97
2023-03-22T04:39:54.607Z,100132.00
2023-03-22T04:42:51.542Z,100134.78
2023-03-22T04:45:29.374Z,100139.03
2023-03-22T04:48:00.513Z,100138.84
2023-03-22T04:50:28.395Z,100139.31
2023-03-22T04:52:59.794Z,100142.63
2023-03-22T04:55:27.772Z,100149.34
2023-03-22T04:57:54.950Z,100143.66
2023-03-22T05:00:24.180Z,100147.16
2023-03-22T05:02:52.231Z,100152.38
2023-03-22T05:05:53.577Z,100146.97
2023-03-22T05:08:27.278Z,100152.78
2023-03-22T05:10:55.908Z,100154.25
2023-03-22T05:13:26.559Z,100150.63
2023-03-22T05:15:54.293Z,100156.47
2023-03-22T05:18:28.812Z,100156.97
2023-03-22T05:20:57.532Z,100166.59
2023-03-22T05:23:25.017Z,100162.59
2023-03-22T05:25:58.419Z,100161.69
2023-03-22T05:28:39.881Z,100166.78
2023-03-22T05:31:28.738Z,100165.47
2023-03-22T05:34:01.745Z,100160.78
2023-03-22T05:36:30.409Z,100161.09
2023-03-22T05:39:16.121Z,100165.28
2023-03-22T05:41:44.163Z,100162.66
2023-03-22T05:44:11.344Z,100159.78
2023-03-22T05:46:44.743Z,100168.00
2023-03-22T05:49:32.457Z,100170.34
2023-03-22T05:52:04.519Z,100168.53
2023-03-22T05:54:45.751Z,100168.38
2023-03-22T05:57:12.741Z,100174.41
2023-03-22T05:59:39.550Z,100170.69
2023-03-22T06:02:09.147Z,100168.63
2023-03-22T06:04:37.024Z,100170.69
2023-03-22T06:07:10.443Z,100167.00
2023-03-22T06:09:51.399Z,100169.31
2023-03-22T06:12:24.857Z,100170.13
2023-03-22T06:15:18.282Z,100172.22
2023-03-22T06:18:21.079Z,100171.97
2023-03-22T06:20:56.329Z,100163.47
2023-03-22T06:23:24.455Z,100167.38
2023-03-22T06:25:52.081Z,100169.00
2023-03-22T06:28:19.447Z,100181.38
2023-03-22T06:30:51.944Z,100174.38
2023-03-22T06:33:38.201Z,100170.50
2023-03-22T06:36:16.489Z,100170.63
2023-03-22T06:39:05.639Z,100176.75
2023-03-22T06:41:33.186Z,100175.75
2023-03-22T06:44:01.266Z,100175.44
2023-03-22T06:46:40.471Z,100182.81
2023-03-22T06:49:17.188Z,100175.13
2023-03-22T06:51:44.482Z,100180.91
2023-03-22T06:54:13.424Z,100179.94
2023-03-22T06:56:41.083Z,100186.25
2023-03-22T06:59:08.247Z,100185.53
2023-03-22T07:01:35.395Z,100191.97
2023-03-22T07:04:02.446Z,100187.03
2023-03-22T07:06:30.701Z,100197.13
2023-03-22T07:08:57.598Z,100192.72
2023-03-22T07:11:29.889Z,100187.38
2023-03-22T07:13:59.460Z,100190.91
2023-03-22T07:16:32.978Z,100193.31
2023-03-22T07:19:02.173Z,100185.75
2023-03-22T07:21:29.057Z,100191.91
2023-03-22T07:23:59.802Z,100176.91
2023-03-22T07:26:30.754Z,100193.28
2023-03-22T07:28:59.045Z,100183.66
2023-03-22T07:31:35.969Z,100184.63
2023-03-22T07:34:05.873Z,100183.97
2023-03-22T07:36:44.480Z,100189.94
2023-03-22T07:39:12.715Z,100184.47
2023-03-22T07:41:44.072Z,100184.91
2023-03-22T08:55:08.459Z,100188.63
2023-03-22T08:57:50.566Z,100184.63
2023-03-22T09:00:20.598Z,100185.91
2023-03-22T09:03:01.275Z,100182.94
2023-03-22T09:05:28.219Z,100181.16
2023-03-22T09:07:56.611Z,100184.28
2023-03-22T09:10:33.460Z,100177.59
2023-03-22T09:13:00.736Z,100176.44
2023-03-22T09:15:27.696Z,100176.66
2023-03-22T09:18:12.480Z,100183.25
2023-03-22T09:20:40.548Z,100181.88
2023-03-22T09:23:08.322Z,100182.41
2023-03-22T09:25:35.507Z,100177.47
2023-03-22T09:28:04.241Z,100168.47
2023-03-22T09:30:31.306Z,100174.34
2023-03-22T09:32:58.303Z,100166.28
2023-03-22T09:35:25.201Z,100170.25
2023-03-22T09:38:00.017Z,100162.41
2023-03-22T09:40:31.966Z,100166.41
2023-03-22T09:43:03.231Z,100162.63
2023-03-22T09:45:38.748Z,100165.41
2023-03-22T09:48:21.890Z,100163.63
2023-03-22T09:50:52.939Z,100167.22
2023-03-22T09:53:21.353Z,100156.53
2023-03-22T09:55:54.600Z,100161.53
2023-03-22T09:58:43.146Z,100163.44
2023-03-22T10:01:35.522Z,100161.63
2023-03-22T10:04:14.687Z,100158.97
2023-03-22T10:06:49.669Z,100157.41
2023-03-22T10:09:42.516Z,100147.84
2023-03-22T10:12:34.988Z,100142.47
2023-03-22T10:15:12.382Z,100141.38
2023-03-22T10:17:42.296Z,100145.97
2023-03-22T10:20:33.354Z,100145.41
2023-03-22T10:23:03.489Z,100148.34
2023-03-22T10:25:39.750Z,100147.84
2023-03-22T10:28:39.832Z,100138.53
2023-03-22T10:31:13.289Z,100134.38
2023-03-22T10:33:50.582Z,100132.94
2023-03-22T10:36:21.277Z,100131.41
2023-03-22T10:38:55.775Z,100132.19
2023-03-22T10:41:25.947Z,100132.06
2023-03-22T10:43:56.775Z,100130.44
2023-03-22T10:46:26.627Z,100116.69
2023-03-22T10:48:59.675Z,100122.88
2023-03-22T10:51:44.976Z,100128.81
2023-03-22T10:54:17.990Z,100118.31
2023-03-22T10:56:46.180Z,100118.03
2023-03-22T10:59:49.170Z,100113.56
2023-03-22T11:02:22.392Z,100102.75
2023-03-22T11:04:53.124Z,100104.94
2023-03-22T11:07:45.909Z,100093.53
2023-03-22T11:10:18.952Z,100095.00
2023-03-22T11:12:55.482Z,100093.94
2023-03-22T11:15:34.768Z,100090.72
2023-03-22T11:18:16.049Z,100088.31
2023-03-22T11:20:57.262Z,100088.78
2023-03-22T11:23:25.132Z,100085.31
2023-03-22T11:25:55.793Z,100083.09
2023-03-22T11:28:28.020Z,100073.53
2023-03-22T11:31:03.095Z,100070.63
2023-03-22T11:33:30.777Z,100064.91
2023-03-22T11:36:03.687Z,100058.41
2023-03-22T11:38:36.757Z,100055.69
2023-03-22T11:41:21.171Z,100052.94
2023-03-22T11:43:53.915Z,100050.25
2023-03-22T11:46:21.863Z,100047.31
2023-03-22T11:48:51.992Z,100048.69
2023-03-22T11:51:35.329Z,100040.22
2023-03-22T11:54:20.929Z,100039.38
2023-03-22T11:56:49.383Z,100039.91
2023-03-22T11:59:21.464Z,100033.34
2023-03-22T12:01:58.789Z,100030.63
2023-03-22T12:04:29.822Z,100033.69
2023-03-22T12:07:00.673Z,100037.50
2023-03-22T12:10:11.218Z,100028.81
2023-03-22T12:12:49.607Z,100030.69
2023-03-22T12:15:22.518Z,100024.97
2023-03-22T12:18:04.929Z,100021.16
2023-03-22T12:20:50.719Z,100014.06
2023-03-22T12:23:28.138Z,100008.63
2023-03-22T12:26:05.223Z,100003.97
2023-03-22T12:28:42.734Z,99996.34
2023-03-22T12:31:21.947Z,99996.31
2023-03-22T12:33:52.769Z,99994.44
2023-03-22T12:36:38.303Z,99995.25
2023-03-22T12:39:08.392Z,99989.25
2023-03-22T12:41:42.702Z,99999.34
2023-03-22T12:44:12.709Z,99986.78
2023-03-22T12:46:51.543Z,99984.88
2023-03-22T12:49:21.835Z,99984.34
2023-03-22T12:51:51.753Z,99978.03
2023-03-22T12:54:22.373Z,99970.34
2023-03-22T12:56:51.370Z,99968.47
2023-03-22T12:59:23.730Z,99967.06
2023-03-22T13:02:01.308Z,99963.56
2023-03-22T13:04:49.727Z,99955.09
2023-03-22T13:07:31.687Z,99959.44
2023-03-22T13:10:00.192Z,99954.81
2023-03-22T13:12:30.815Z,99946.63
2023-03-22T13:15:28.419Z,99944.94
2023-03-22T13:17:59.202Z,99931.56
2023-03-22T13:20:28.371Z,99927.47
2023-03-22T13:22:57.487Z,99917.59
2023-03-22T13:25:38.682Z,99923.03
2023-03-22T13:28:23.582Z,99914.38
2023-03-22T13:30:53.667Z,99921.34
2023-03-22T13:33:27.270Z,99910.41
2023-03-22T13:35:56.943Z,99907.16
2023-03-22T13:38:26.060Z,99902.75
2023-03-22T13:41:08.029Z,99907.53
2023-03-22T13:43:43.496Z,99902.00
2023-03-22T13:46:13.299Z,99892.38
2023-03-22T13:48:55.419Z,99894.66
2023-03-22T13:51:25.782Z,99891.84
2023-03-22T13:53:52.540Z,99882.69
2023-03-22T13:56:34.025Z,99894.88
2023-03-22T13:59:03.953Z,99887.81
2023-03-22T14:01:36.988Z,99886.81
2023-03-22T14:04:10.829Z,99885.16
2023-03-22T14:06:52.644Z,99882.84
2023-03-22T14:09:31.894Z,99878.19
2023-03-22T14:12:20.859Z,99874.59
2023-03-22T14:14:54.948Z,99870.97
2023-03-22T14:17:47.729Z,99867.19
2023-03-22T14:20:21.151Z,99863.59
2023-03-22T14:53:16.786Z,99848.94
2023-03-22T14:55:45.629Z,99844.53
2023-03-22T14:58:15.849Z,99845.81
2023-03-22T15:00:42.997Z,99835.75
2023-03-22T15:03:20.409Z,99839.13
2023-03-22T15:05:47.576Z,99844.19
2023-03-22T15:08:20.177Z,99843.19
2023-03-22T15:10:58.980Z,99842.56
2023-03-22T15:13:27.031Z,99843.53
2023-03-22T15:15:54.669Z,99832.88
2023-03-22T15:18:24.894Z,99835.16
2023-03-22T15:20:53.210Z,99833.97
2023-03-22T15:23:31.756Z,99839.53
2023-03-22T15:26:01.078Z,99831.91
2023-03-22T15:28:31.577Z,99831.13
2023-03-22T15:31:04.134Z,99828.44
2023-03-22T15:33:37.633Z,99833.09
2023-03-22T15:36:06.762Z,99828.69
2023-03-22T15:38:46.668Z,99833.13
2023-03-22T15:41:26.432Z,99830.88
2023-03-22T15:44:04.819Z,99818.06
2023-03-22T15:46:48.500Z,99824.19
2023-03-22T15:49:19.584Z,99826.69
2023-03-22T15:51:47.245Z,99820.19
2023-03-22T15:54:19.913Z,99817.63
2023-03-22T15:56:49.735Z,99820.78
2023-03-22T15:59:31.732Z,99824.13
2023-03-22T16:02:00.747Z,99818.97
2023-03-22T16:04:34.753Z,99830.31
2023-03-22T16:07:02.213Z,99828.94
2023-03-22T16:09:29.140Z,99833.38
2023-03-22T16:11:56.180Z,99829.00
2023-03-22T16:14:23.203Z,99832.31
2023-03-22T16:16:50.228Z,99834.75
2023-03-22T16:19:17.358Z,99827.66
2023-03-22T16:21:44.370Z,99833.13
2023-03-22T16:24:12.831Z,99838.34
2023-03-22T16:26:40.182Z,99835.41
2023-03-22T16:29:07.134Z,99837.31
2023-03-22T16:31:34.110Z,99840.63
2023-03-22T16:34:01.092Z,99839.56
2023-03-22T16:36:28.332Z,99849.13
2023-03-22T16:38:55.440Z,99842.56
2023-03-22T16:41:29.430Z,99847.31
2023-03-22T16:43:58.851Z,99841.81
2023-03-22T16:46:28.509Z,99846.53
2023-03-22T16:48:55.553Z,99843.09
2023-03-22T16:51:30.802Z,99848.09
2023-03-22T16:53:58.999Z,99836.41
2023-03-22T16:56:30.802Z,99842.44
2023-03-22T16:58:57.792Z,99842.66
2023-03-22T17:01:26.093Z,99843.78
2023-03-22T17:03:53.452Z,99849.75
2023-03-22T17:06:24.077Z,99853.59
2023-03-22T17:08:55.333Z,99848.94
2023-03-22T17:11:29.755Z,99855.75
2023-03-22T17:13:59.066Z,99856.53
2023-03-22T17:16:27.790Z,99858.41
2023-03-22T17:18:57.248Z,99857.78
2023-03-22T17:21:24.343Z,99858.84
2023-03-22T17:23:51.619Z,99857.78
2023-03-22T17:26:18.766Z,99857.22
2023-03-22T17:28:48.064Z,99862.06
2023-03-22T17:31:17.543Z,99858.56
2023-03-22T17:33:45.295Z,99862.88
2023-03-22T17:36:13.509Z,99862.81
2023-03-22T17:38:53.277Z,99865.50
2023-03-22T17:41:27.842Z,99876.63
2023-03-22T17:43:54.711Z,99876.63
2023-03-22T17:48:51.581Z,99875.78
2023-03-22T17:51:18.484Z,99879.59
2023-03-22T17:54:35.497Z,99877.84
2023-03-22T17:57:01.054Z,99877.91
2023-03-22T17:59:38.134Z,99879.31
2023-03-22T18:02:50.931Z,99889.06
2023-03-22T18:05:28.149Z,99887.69
2023-03-22T18:08:27.266Z,99887.91
2023-03-22T18:10:56.256Z,99887.88
2023-03-22T18:13:28.140Z,99895.25
2023-03-22T18:16:03.389Z,99896.63
2023-03-22T18:18:34.158Z,99895.38
2023-03-22T18:21:42.444Z,99903.19
2023-03-22T18:24:25.133Z,99892.53
2023-03-22T18:30:12.341Z,99901.94
2023-03-22T18:33:03.830Z,99902.91
2023-03-22T18:35:54.150Z,99910.13
2023-03-22T18:39:02.984Z,99903.38
2023-03-22T18:41:46.218Z,99900.47
2023-03-22T18:44:26.470Z,99906.63
2023-03-22T18:47:09.356Z,99898.88
2023-03-22T18:49:58.625Z,99913.16
2023-03-22T18:53:17.873Z,99907.78
2023-03-22T18:55:52.241Z,99916.25
2023-03-22T18:58:39.307Z,99916.19
2023-03-22T19:01:13.063Z,99911.66
2023-03-22T19:03:46.042Z,99917.63
2023-03-22T19:07:01.053Z,99925.13
2023-03-22T19:09:45.777Z,99925.59
2023-03-22T19:12:28.522Z,99922.69
2023-03-22T19:15:31.822Z,99916.06
2023-03-22T19:18:32.293Z,99922.78
2023-03-22T19:24:10.230Z,99922.09
2023-03-22T19:26:58.488Z,99922.53
2023-03-22T19:29:37.208Z,99929.72
2023-03-22T19:32:04.721Z,99924.16
2023-03-22T19:34:50.358Z,99923.22
2023-03-22T19:37:21.340Z,99922.59
2023-03-22T19:42:44.551Z,99928.34
2023-03-22T19:45:26.367Z,99930.78
2023-03-22T19:48:05.379Z,99934.97
2023-03-22T19:50:39.079Z,99926.53
2023-03-22T19:54:08.458Z,99921.69
2023-03-22T19:56:18.730Z,99940.69
2023-03-22T19:59:03.352Z,99934.22
2023-03-22T20:01:40.222Z,99931.91
2023-03-22T20:04:07.226Z,99935.44
2023-03-22T20:06:55.312Z,99935.34
2023-03-22T20:10:02.153Z,99943.44
2023-03-22T20:12:38.917Z,99938.41
2023-03-22T20:15:37.614Z,99940.53
2023-03-22T20:18:09.705Z,99942.66
2023-03-22T20:20:36.620Z,99940.94
2023-03-22T20:23:22.284Z,99940.97
2023-03-22T20:26:09.701Z,99937.38
2023-03-22T20:29:02.758Z,99942.66
2023-03-22T20:31:59.976Z,99952.34
2023-03-22T20:35:04.697Z,99948.09
2023-03-22T20:37:38.728Z,99942.03
2023-03-22T20:40:12.290Z,99940.81
2023-03-22T20:43:35.725Z,99941.06
2023-03-22T20:46:57.255Z,99946.41
2023-03-22T20:49:27.356Z,99947.13
2023-03-22T20:52:03.707Z,99947.78
2023-03-22T20:54:30.789Z,99947.53
2023-03-22T20:56:57.899Z,99949.50
2023-03-22T20:59:24.854Z,99958.88
2023-03-22T21:01:53.567Z,99960.50
2023-03-22T21:04:20.962Z,99953.00
2023-03-22T21:06:49.120Z,99960.25
2023-03-22T21:09:16.667Z,99958.53
2023-03-22T21:11:43.834Z,99955.81
2023-03-22T21:14:11.248Z,99964.16
2023-03-22T21:16:44.063Z,99968.53
2023-03-22T21:19:12.034Z,99964.34
2023-03-22T21:21:40.075Z,99962.47
2023-03-22T21:24:07.437Z,99965.25
2023-03-22T21:26:34.492Z,99973.72
2023-03-22T21:29:01.622Z,99962.91
2023-03-22T21:31:28.708Z,99970.88
2023-03-22T21:33:55.709Z,99957.66
2023-03-22T21:36:22.640Z,99962.84
2023-03-22T21:38:54.925Z,99960.88
2023-03-22T21:41:24.477Z,99968.97
2023-03-22T21:43:55.395Z,99977.66
2023-03-22T21:46:24.218Z,99972.88
2023-03-22T21:48:54.294Z,99979.31
2023-03-22T21:51:28.513Z,99976.22
2023-03-22T21:53:56.864Z,99979.69
2023-03-22T21:56:24.788Z,99969.13
2023-03-22T21:58:52.330Z,99973.13
2023-03-22T22:01:19.984Z,99973.66
2023-03-22T22:03:48.551Z,99975.41
2023-03-22T22:06:15.681Z,99975.19
2023-03-22T22:08:42.636Z,99976.94
2023-03-22T22:11:10.149Z,99984.09
2023-03-22T22:13:38.456Z,99980.41
2023-03-22T22:16:08.352Z,99973.41
2023-03-22T22:18:39.232Z,99978.81
2023-03-22T22:21:09.289Z,99965.91
2023-03-22T22:23:41.929Z,99962.94
2023-03-22T22:26:10.323Z,99965.19
2023-03-22T22:28:38.599Z,99970.59
2023-03-22T22:31:10.266Z,99966.38
2023-03-22T22:33:39.979Z,99968.59
2023-03-22T22:36:10.491Z,99971.63
2023-03-22T22:38:38.884Z,99972.66
2023-03-22T22:41:11.641Z,99970.72
2023-03-22T22:43:38.837Z,99967.09
2023-03-22T22:46:06.304Z,99968.91
2023-03-22T22:48:34.121Z,99966.38
2023-03-22T22:51:06.582Z,99961.03
2023-03-22T22:53:34.339Z,99964.00
2023-03-22T22:56:02.263Z,99960.97
2023-03-22T22:58:29.578Z,99968.25
2023-03-22T23:00:56.724Z,99969.31
2023-03-22T23:03:26.542Z,99971.81
2023-03-22T23:05:53.682Z,99966.19
2023-03-22T23:08:20.719Z,99959.88
2023-03-22T23:10:52.624Z,99961.91
2023-03-22T23:13:20.692Z,99967.09
2023-03-22T23:15:52.943Z,99962.44
2023-03-22T23:18:22.880Z,99958.25
2023-03-22T23:20:50.726Z,99969.31
2023-03-22T23:23:20.597Z,99972.13
2023-03-22T23:25:48.419Z,99965.78
2023-03-22T23:28:17.627Z,99973.50
2023-03-22T23:30:44.572Z,99971.25
2023-03-22T23:33:12.765Z,99972.66
2023-03-22T23:35:43.003Z,99968.56
2023-03-22T23:38:10.860Z,99965.72
2023-03-22T23:40:38.155Z,99967.84
2023-03-22T23:43:05.097Z,99957.75
2023-03-22T23:45:32.273Z,99964.03
2023-03-22T23:47:59.302Z,99964.22
2023-03-22T23:50:26.199Z,99968.84
2023-03-22T23:52:53.081Z,99972.09
2023-03-22T23:55:22.226Z,99970.09
2023-03-22T23:57:49.124Z,99966.63
